RYR15QK EYKA-LCPH
Flight info
| Callsign | RYR15QK |
|---|---|
| Flight time | N/A |
| Altitude | 34000 |
| Route | KAZLA DCT SUWGI M985 EVINA/N0435F330 DCT KELEL DCT VERIG/N0443F350 DCT LOMOS DCT NIKTI DCT LMO UN128 RIKSO DCT ADAMO DCT BENEM DCT EVENO DCT DASNI M32 TOBAL |
| Aircraft | B738/M-SDGIJ1LRWY/SB1 |
Departure
| Time | 2026-04-17 13:42 |
|---|---|
| Airport | Kaunas International Airport (EYKA) |
Arrival
| Time | N/A |
|---|---|
| Airport | Paphos International Airport (LCPH) |
| Time | Latitude | Longitude | Altitude | Speed | Heading |
|---|---|---|---|---|---|
| 2026-04-17 13:07 | 54.96593 | 24.07399 | 230 ft | 0 kts | 104° |
| 2026-04-17 13:34 | 54.96592 | 24.07400 | 230 ft | 0 kts | 104° |
| 2026-04-17 13:35 | 54.96590 | 24.07414 | 230 ft | 0 kts | 104° |
| 2026-04-17 13:35 | 54.96588 | 24.07429 | 230 ft | 3 kts | 107° |
| 2026-04-17 13:35 | 54.96567 | 24.07477 | 231 ft | 5 kts | 158° |
| 2026-04-17 13:35 | 54.96531 | 24.07491 | 232 ft | 5 kts | 156° |
| 2026-04-17 13:36 | 54.96513 | 24.07552 | 232 ft | 6 kts | 94° |
| 2026-04-17 13:36 | 54.96518 | 24.07674 | 232 ft | 13 kts | 84° |
| 2026-04-17 13:36 | 54.96525 | 24.07832 | 232 ft | 12 kts | 85° |
| 2026-04-17 13:36 | 54.96532 | 24.07954 | 234 ft | 8 kts | 84° |
| 2026-04-17 13:37 | 54.96543 | 24.08040 | 235 ft | 10 kts | 74° |
| 2026-04-17 13:37 | 54.96571 | 24.08231 | 235 ft | 18 kts | 84° |
| 2026-04-17 13:37 | 54.96582 | 24.08443 | 235 ft | 16 kts | 84° |
| 2026-04-17 13:37 | 54.96591 | 24.08630 | 238 ft | 14 kts | 85° |
| 2026-04-17 13:38 | 54.96602 | 24.08863 | 238 ft | 25 kts | 85° |
| 2026-04-17 13:38 | 54.96617 | 24.09185 | 242 ft | 25 kts | 85° |
| 2026-04-17 13:38 | 54.96632 | 24.09483 | 242 ft | 20 kts | 85° |
| 2026-04-17 13:38 | 54.96596 | 24.09636 | 243 ft | 11 kts | 162° |
| 2026-04-17 13:39 | 54.96508 | 24.09658 | 245 ft | 17 kts | 168° |
| 2026-04-17 13:39 | 54.96460 | 24.09842 | 246 ft | 19 kts | 85° |
| 2026-04-17 13:39 | 54.96475 | 24.10152 | 249 ft | 33 kts | 85° |
| 2026-04-17 13:39 | 54.96495 | 24.10551 | 248 ft | 32 kts | 84° |
| 2026-04-17 13:40 | 54.96543 | 24.10821 | 247 ft | 21 kts | 56° |
| 2026-04-17 13:40 | 54.96541 | 24.10973 | 245 ft | 9 kts | 158° |
| 2026-04-17 13:40 | 54.96511 | 24.10930 | 246 ft | 5 kts | 271° |
| 2026-04-17 13:40 | 54.96511 | 24.10932 | 246 ft | 0 kts | 277° |
| 2026-04-17 13:41 | 54.96509 | 24.10852 | 248 ft | 28 kts | 266° |
| 2026-04-17 13:41 | 54.96473 | 24.10115 | 249 ft | 93 kts | 266° |
| 2026-04-17 13:41 | 54.96402 | 24.08651 | 239 ft | 148 kts | 265° |
| 2026-04-17 13:41 | 54.96300 | 24.06620 | 393 ft | 178 kts | 268° |
| 2026-04-17 13:42 | 54.96210 | 24.04474 | 1083 ft | 175 kts | 269° |
| 2026-04-17 13:42 | 54.96119 | 24.02442 | 1733 ft | 177 kts | 271° |
| 2026-04-17 13:42 | 54.96019 | 24.00234 | 2125 ft | 187 kts | 270° |
| 2026-04-17 13:42 | 54.95899 | 23.97956 | 2489 ft | 198 kts | 270° |
| 2026-04-17 13:43 | 54.95770 | 23.95439 | 2717 ft | 218 kts | 270° |
| 2026-04-17 13:43 | 54.95620 | 23.92748 | 3077 ft | 235 kts | 265° |
| 2026-04-17 13:43 | 54.95003 | 23.90002 | 3441 ft | 260 kts | 235° |
| 2026-04-17 13:43 | 54.93624 | 23.87821 | 3875 ft | 276 kts | 218° |
| 2026-04-17 13:44 | 54.91988 | 23.85920 | 4378 ft | 285 kts | 216° |
| 2026-04-17 13:44 | 54.90349 | 23.83982 | 5074 ft | 286 kts | 218° |
| 2026-04-17 13:44 | 54.88743 | 23.81953 | 5672 ft | 290 kts | 219° |